Time;durP1;ratioP1;P1;durP2;ratioP2;P2;SDS_P1;SDS_P2;PMS_P1;PMS_P2;Temp;Humidity;BMP_temperature;BMP_pressure;BME280_temperature;BME280_humidity;BME280_pressure;Samples;Min_cycle;Max_cycle;Signal;HPM_P1;HPM_P2
2023/12/23 00:00:03;;;;;;;;;;;;;;;3.09;100.00;97963.91;5071746;28;19974;-78
2023/12/23 00:02:28;;;;;;;;;;;;;;;3.37;100.00;97949.59;5072592;28;19916;-75
2023/12/23 00:04:53;;;;;;;;;;;;;;;3.34;100.00;97965.59;5071970;28;20037;-74
2023/12/23 00:07:19;;;;;;;;;;;;;;;3.30;100.00;97969.06;5054156;28;19925;-73
2023/12/23 00:09:44;;;;;;;;;;;;;;;3.30;100.00;97984.13;5054075;28;19916;-75
2023/12/23 00:12:09;;;;;;;;;;;;;;;3.10;100.00;98008.19;5052849;28;20382;-75
2023/12/23 00:14:35;;;;;;;;;;;;;;;3.12;100.00;97997.25;5071936;28;19924;-74
2023/12/23 00:17:00;;;;;;;;;;;;;;;3.26;100.00;97991.78;5071548;28;19942;-76
2023/12/23 00:19:26;;;;;;;;;;;;;;;3.25;100.00;97995.97;5054029;28;19920;-75
2023/12/23 00:21:51;;;;;;;;;;;;;;;3.34;100.00;97979.81;5072055;28;19920;-75
2023/12/23 00:24:16;;;;;;;;;;;;;;;3.42;100.00;97972.88;5071469;28;20383;-78
2023/12/23 00:26:41;;;;;;;;;;;;;;;3.32;100.00;97986.59;5071421;28;19912;-75
2023/12/23 00:29:07;;;;;;;;;;;;;;;3.05;100.00;98000.00;5052501;28;19939;-75
2023/12/23 00:31:32;;;;;;;;;;;;;;;3.15;100.00;97987.09;5053637;28;19912;-75
2023/12/23 00:33:57;;;;;;;;;;;;;;;3.56;100.00;97983.28;5070403;28;19943;-74
2023/12/23 00:36:22;;;;;;;;;;;;;;;3.49;100.00;98006.94;5054013;28;19919;-74
2023/12/23 00:38:49;;;;;;;;;;;;;;;3.55;100.00;98006.75;5053934;28;19981;-75
2023/12/23 00:41:14;;;;;;;;;;;;;;;3.50;100.00;98016.97;5070679;28;19916;-75
2023/12/23 00:43:39;;;;;;;;;;;;;;;3.63;100.00;98021.56;5053730;28;19970;-74
2023/12/23 00:46:06;;;;;;;;;;;;;;;3.46;100.00;98029.66;5071188;28;20395;-77
2023/12/23 00:48:31;;;;;;;;;;;;;;;3.15;100.00;98049.84;5069939;28;19916;-75
2023/12/23 00:50:56;;;;;;;;;;;;;;;3.82;100.00;98025.16;5051895;28;19974;-75
2023/12/23 00:53:25;;;;;;;;;;;;;;;3.69;100.00;98029.75;5070963;28;20361;-76
2023/12/23 00:55:51;;;;;;;;;;;;;;;3.78;100.00;98026.13;5071332;28;19924;-76
2023/12/23 00:58:16;;;;;;;;;;;;;;;3.92;100.00;98024.78;5053372;28;19917;-77
2023/12/23 01:00:41;;;;;;;;;;;;;;;3.98;100.00;98023.78;5071243;28;19916;-75
2023/12/23 01:03:06;;;;;;;;;;;;;;;3.96;100.00;98038.88;5071024;28;20014;-75
2023/12/23 01:05:32;;;;;;;;;;;;;;;3.99;100.00;98036.28;5053389;28;20401;-76
2023/12/23 01:07:57;;;;;;;;;;;;;;;3.86;100.00;98039.25;5070540;28;19916;-74
2023/12/23 01:10:24;;;;;;;;;;;;;;;3.89;100.00;98024.91;5070828;28;20386;-74
2023/12/23 01:12:49;;;;;;;;;;;;;;;3.93;100.00;98011.34;5052840;28;19926;-74
2023/12/23 01:15:14;;;;;;;;;;;;;;;3.98;100.00;98019.56;5070476;28;19924;-74
2023/12/23 01:17:40;;;;;;;;;;;;;;;3.75;100.00;98043.78;5053101;28;19924;-74
2023/12/23 01:20:05;;;;;;;;;;;;;;;3.68;100.00;98047.38;5070508;28;19955;-75
2023/12/23 01:22:31;;;;;;;;;;;;;;;3.61;100.00;98053.44;5052355;28;19916;-74
2023/12/23 01:24:56;;;;;;;;;;;;;;;3.46;100.00;98055.59;5052086;28;19925;-74
2023/12/23 01:27:21;;;;;;;;;;;;;;;3.59;100.00;98051.00;5052857;28;19938;-75
2023/12/23 01:29:46;;;;;;;;;;;;;;;3.38;100.00;98060.03;5069036;28;19916;-74
2023/12/23 01:32:12;;;;;;;;;;;;;;;3.45;100.00;98056.44;5051300;28;19924;-74
2023/12/23 01:34:38;;;;;;;;;;;;;;;3.39;100.00;98051.63;5050653;28;19916;-75
2023/12/23 01:37:03;;;;;;;;;;;;;;;3.40;100.00;98044.91;5070915;28;20275;-74
2023/12/23 01:39:29;;;;;;;;;;;;;;;3.33;100.00;98066.03;5052960;28;19947;-74
2023/12/23 01:41:54;;;;;;;;;;;;;;;3.22;100.00;98081.44;5052247;28;20370;-75
2023/12/23 01:44:19;;;;;;;;;;;;;;;3.31;100.00;98065.25;5070761;28;19920;-74
2023/12/23 01:46:46;;;;;;;;;;;;;;;3.36;100.00;98064.28;5052443;28;19924;-74
2023/12/23 01:49:12;;;;;;;;;;;;;;;3.24;100.00;98078.88;5069881;28;20524;-75
2023/12/23 01:51:37;;;;;;;;;;;;;;;3.43;100.00;98054.84;5052277;28;19964;-74
2023/12/23 01:54:05;;;;;;;;;;;;;;;3.45;100.00;98060.63;5069665;28;19917;-77
2023/12/23 01:56:34;;;;;;;;;;;;;;;3.38;100.00;98064.22;5069995;28;20031;-74
2023/12/23 01:59:03;;;;;;;;;;;;;;;3.58;100.00;98048.53;5069622;28;19999;-74
2023/12/23 02:01:32;;;;;;;;;;;;;;;3.64;100.00;98041.63;5070380;28;19939;-77
2023/12/23 02:03:57;;;;;;;;;;;;;;;3.82;100.00;98036.03;5069096;28;19991;-73
2023/12/23 02:06:22;;;;;;;;;;;;;;;4.12;100.00;98021.63;5052171;28;20023;-75
2023/12/23 02:08:48;;;;;;;;;;;;;;;4.13;100.00;98016.53;5051997;28;20284;-74
2023/12/23 02:11:19;;;;;;;;;;;;;;;4.21;100.00;97986.94;5051899;28;19973;-74
2023/12/23 02:14:08;;;;;;;;;;;;;;;4.09;100.00;97997.41;5070043;28;19916;-74
2023/12/23 02:16:34;;;;;;;;;;;;;;;3.67;100.00;98018.09;5032179;28;20432;-74
2023/12/23 02:18:59;;;;;;;;;;;;;;;3.57;100.00;97994.97;5068089;28;19941;-74
2023/12/23 02:21:24;;;;;;;;;;;;;;;3.70;100.00;97980.34;5069713;28;20387;-74
2023/12/23 02:23:49;;;;;;;;;;;;;;;3.64;100.00;97998.13;5069279;28;19923;-74
2023/12/23 02:26:17;;;;;;;;;;;;;;;3.67;100.00;98025.63;5051544;28;19927;-74
2023/12/23 02:28:43;;;;;;;;;;;;;;;3.62;100.00;98048.41;5051672;28;20013;-75
2023/12/23 02:31:09;;;;;;;;;;;;;;;3.76;100.00;98058.84;5051670;28;20019;-74
2023/12/23 02:33:35;;;;;;;;;;;;;;;3.71;100.00;98049.78;5069935;28;19916;-74
2023/12/23 02:36:07;;;;;;;;;;;;;;;3.68;100.00;98075.00;5069576;28;20453;-73
2023/12/23 02:38:32;;;;;;;;;;;;;;;3.59;100.00;98060.22;5050799;28;19992;-75
2023/12/23 02:40:57;;;;;;;;;;;;;;;3.64;100.00;98053.38;5051417;28;19923;-73
2023/12/23 02:43:23;;;;;;;;;;;;;;;3.70;100.00;98033.91;5069849;28;20504;-73
2023/12/23 02:45:48;;;;;;;;;;;;;;;3.71;100.00;98017.94;5069526;28;19912;-72
2023/12/23 02:48:13;;;;;;;;;;;;;;;3.77;100.00;98014.41;5050974;28;19916;-76
2023/12/23 02:50:39;;;;;;;;;;;;;;;3.88;100.00;98022.44;5069309;28;19924;-73
2023/12/23 02:53:07;;;;;;;;;;;;;;;3.73;100.00;98051.38;5069890;28;19916;-75
2023/12/23 02:55:33;;;;;;;;;;;;;;;3.66;100.00;98034.06;5050770;28;19920;-72
2023/12/23 02:57:59;;;;;;;;;;;;;;;3.27;100.00;97964.13;5050207;28;20024;-76
2023/12/23 03:00:24;;;;;;;;;;;;;;;3.57;100.00;98054.41;5067281;28;20374;-73
2023/12/23 03:02:49;;;;;;;;;;;;;;;3.45;100.00;98056.44;5051211;28;19920;-74
2023/12/23 03:05:15;;;;;;;;;;;;;;;3.58;100.00;98076.16;5051545;28;20431;-74
2023/12/23 03:07:40;;;;;;;;;;;;;;;3.45;100.00;98068.16;5051334;28;19916;-74
2023/12/23 03:10:06;;;;;;;;;;;;;;;3.39;100.00;98079.22;5051274;28;19913;-74
2023/12/23 03:12:31;;;;;;;;;;;;;;;3.43;100.00;98063.22;5050424;28;19932;-73
2023/12/23 03:14:56;;;;;;;;;;;;;;;3.22;100.00;98068.88;5069075;28;19939;-74
2023/12/23 03:17:22;;;;;;;;;;;;;;;3.39;100.00;98024.00;5069424;28;19947;-74
2023/12/23 03:19:47;;;;;;;;;;;;;;;2.93;100.00;98068.88;5069010;28;20425;-73
2023/12/23 03:22:13;;;;;;;;;;;;;;;3.16;100.00;98045.66;5068914;28;20001;-74
2023/12/23 03:24:39;;;;;;;;;;;;;;;3.20;100.00;98044.69;5051435;28;19923;-75
2023/12/23 03:27:04;;;;;;;;;;;;;;;3.22;100.00;98053.81;5050661;28;19916;-72
2023/12/23 03:29:29;;;;;;;;;;;;;;;3.07;100.00;98063.50;5049252;28;19920;-73
2023/12/23 03:31:54;;;;;;;;;;;;;;;3.34;100.00;98055.97;5067462;28;19923;-75
2023/12/23 03:34:20;;;;;;;;;;;;;;;3.14;100.00;98072.47;5051021;28;19974;-74
2023/12/23 03:36:45;;;;;;;;;;;;;;;3.22;100.00;98065.53;5068097;28;19917;-75
2023/12/23 03:39:10;;;;;;;;;;;;;;;3.36;100.00;98050.91;5065479;28;19968;-76
2023/12/23 03:41:35;;;;;;;;;;;;;;;3.23;100.00;98060.47;5047893;28;19920;-77
2023/12/23 03:44:01;;;;;;;;;;;;;;;3.21;100.00;98059.69;5067349;28;20309;-75
2023/12/23 03:46:26;;;;;;;;;;;;;;;3.22;100.00;98065.53;5050404;28;19924;-73
2023/12/23 03:48:52;;;;;;;;;;;;;;;3.24;100.00;98057.09;5070908;28;20456;-72
2023/12/23 03:51:17;;;;;;;;;;;;;;;3.11;100.00;98060.03;5051264;28;19929;-73
2023/12/23 03:53:42;;;;;;;;;;;;;;;3.39;100.00;98053.28;5070793;28;19912;-73
2023/12/23 03:56:08;;;;;;;;;;;;;;;3.26;100.00;98067.94;5054303;28;19977;-73
2023/12/23 03:58:33;;;;;;;;;;;;;;;3.26;100.00;98067.94;5053663;28;19986;-73
2023/12/23 04:00:58;;;;;;;;;;;;;;;3.15;100.00;98069.91;5070936;28;20004;-74
2023/12/23 04:03:23;;;;;;;;;;;;;;;3.22;100.00;98073.91;5052913;28;19923;-74
2023/12/23 04:05:49;;;;;;;;;;;;;;;3.18;100.00;98066.50;5069642;28;20303;-73
2023/12/23 04:08:14;;;;;;;;;;;;;;;2.89;100.00;98074.06;5070041;28;19916;-72
2023/12/23 04:10:39;;;;;;;;;;;;;;;3.01;100.00;98051.13;5070739;28;19924;-74
2023/12/23 04:13:04;;;;;;;;;;;;;;;3.29;100.00;98027.66;5071758;28;19927;-75
2023/12/23 04:15:30;;;;;;;;;;;;;;;3.13;100.00;98039.03;5071519;28;19956;-74
2023/12/23 04:17:55;;;;;;;;;;;;;;;2.92;100.00;98058.91;5053376;28;19963;-74
2023/12/23 04:20:20;;;;;;;;;;;;;;;2.86;100.00;98049.03;5052832;28;19922;-73
2023/12/23 04:22:47;;;;;;;;;;;;;;;2.89;100.00;98062.34;5071633;28;19916;-77
2023/12/23 04:25:13;;;;;;;;;;;;;;;2.84;100.00;98066.66;5053805;28;20362;-73
2023/12/23 04:27:39;;;;;;;;;;;;;;;2.69;100.00;98062.06;5071101;28;19995;-73
2023/12/23 04:30:11;;;;;;;;;;;;;;;2.89;100.00;98047.28;5053285;28;19924;-73
2023/12/23 04:32:36;;;;;;;;;;;;;;;2.77;100.00;98057.66;5053057;28;20051;-73
2023/12/23 04:35:03;;;;;;;;;;;;;;;2.78;100.00;98060.97;5071218;28;20417;-74
2023/12/23 04:37:28;;;;;;;;;;;;;;;3.09;100.00;98045.00;5071283;28;19943;-73
2023/12/23 04:39:53;;;;;;;;;;;;;;;2.87;100.00;98058.22;5053090;28;19924;-73
2023/12/23 04:42:19;;;;;;;;;;;;;;;2.89;100.00;98057.31;5052907;28;19916;-74
2023/12/23 04:44:44;;;;;;;;;;;;;;;2.99;100.00;98038.59;5071039;28;19923;-73
2023/12/23 04:47:09;;;;;;;;;;;;;;;3.23;100.00;98017.81;5053226;28;20451;-74
2023/12/23 04:49:35;;;;;;;;;;;;;;;3.17;100.00;98024.72;5070618;28;19916;-74
2023/12/23 04:52:00;;;;;;;;;;;;;;;3.21;100.00;98021.25;5070164;28;20003;-74
2023/12/23 04:54:25;;;;;;;;;;;;;;;3.17;100.00;98017.97;5071534;28;19916;-75
2023/12/23 04:56:50;;;;;;;;;;;;;;;3.15;100.00;98008.88;5070551;28;19924;-75
2023/12/23 04:59:16;;;;;;;;;;;;;;;3.17;100.00;98010.47;5070593;28;19916;-75
2023/12/23 05:01:41;;;;;;;;;;;;;;;3.26;100.00;98007.69;5070793;28;20021;-75
2023/12/23 05:04:06;;;;;;;;;;;;;;;3.15;100.00;98024.75;5070371;28;19916;-74
2023/12/23 05:06:31;;;;;;;;;;;;;;;3.13;100.00;98026.47;5069978;28;19954;-74
2023/12/23 05:08:57;;;;;;;;;;;;;;;3.12;100.00;98031.53;5070468;28;19916;-74
2023/12/23 05:11:22;;;;;;;;;;;;;;;2.93;100.00;98035.47;5052624;28;20015;-74
2023/12/23 05:13:47;;;;;;;;;;;;;;;3.20;100.00;98017.09;5070141;28;20400;-74
2023/12/23 05:16:13;;;;;;;;;;;;;;;3.30;100.00;98014.25;5052262;28;19917;-73
2023/12/23 05:18:38;;;;;;;;;;;;;;;3.31;100.00;98017.56;5052219;28;19924;-73
2023/12/23 05:21:03;;;;;;;;;;;;;;;3.07;100.00;98026.66;5051336;28;19916;-74
2023/12/23 05:23:28;;;;;;;;;;;;;;;3.13;100.00;98011.41;5069792;28;19920;-74
2023/12/23 05:25:55;;;;;;;;;;;;;;;3.16;100.00;97996.28;5052631;28;19952;-74
2023/12/23 05:28:20;;;;;;;;;;;;;;;3.06;100.00;98017.50;5052008;28;19931;-74
2023/12/23 05:30:45;;;;;;;;;;;;;;;2.85;100.00;98022.34;5070236;28;19999;-75
2023/12/23 05:33:11;;;;;;;;;;;;;;;2.89;100.00;97994.59;5069990;28;21543;-74
2023/12/23 05:35:36;;;;;;;;;;;;;;;2.83;100.00;98001.47;5050903;28;19924;-72
2023/12/23 05:38:01;;;;;;;;;;;;;;;2.83;100.00;98017.38;5051475;28;19916;-74
2023/12/23 05:40:26;;;;;;;;;;;;;;;2.80;100.00;98012.41;5069407;28;20026;-75
2023/12/23 05:42:52;;;;;;;;;;;;;;;2.64;100.00;98011.22;5051946;28;19928;-71
2023/12/23 05:45:17;;;;;;;;;;;;;;;2.73;100.00;98015.16;5069534;28;19922;-72
2023/12/23 05:47:48;;;;;;;;;;;;;;;2.56;100.00;98015.63;5051180;28;19939;-70
2023/12/23 05:50:13;;;;;;;;;;;;;;;2.66;100.00;98019.50;5069422;28;20405;-74
2023/12/23 05:52:38;;;;;;;;;;;;;;;2.69;100.00;98013.59;5064175;28;19916;-72
2023/12/23 05:55:04;;;;;;;;;;;;;;;2.53;100.00;98023.25;5067268;28;19931;-75
2023/12/23 05:57:29;;;;;;;;;;;;;;;2.58;100.00;98032.28;5049275;28;19999;-73
2023/12/23 05:59:54;;;;;;;;;;;;;;;2.59;100.00;98028.88;5048790;28;19923;-72
2023/12/23 06:02:20;;;;;;;;;;;;;;;2.71;100.00;98006.84;5067186;28;20321;-73
2023/12/23 06:04:45;;;;;;;;;;;;;;;2.89;100.00;98017.19;5048469;28;19924;-73
2023/12/23 06:07:11;;;;;;;;;;;;;;;2.64;100.00;98041.31;5048842;28;19920;-72
2023/12/23 06:09:36;;;;;;;;;;;;;;;2.84;100.00;98024.00;5065625;28;19943;-74
2023/12/23 06:12:02;;;;;;;;;;;;;;;2.68;100.00;98037.84;5067256;28;19973;-72
2023/12/23 06:14:27;;;;;;;;;;;;;;;2.85;100.00;98030.69;5049614;28;20310;-75
2023/12/23 06:16:52;;;;;;;;;;;;;;;2.78;100.00;98045.94;5048889;28;19928;-72
2023/12/23 06:19:18;;;;;;;;;;;;;;;3.09;100.00;98032.44;5067151;28;19916;-75
2023/12/23 06:21:46;;;;;;;;;;;;;;;2.96;100.00;98028.66;5065025;28;22041;-71
2023/12/23 06:24:12;;;;;;;;;;;;;;;3.11;100.00;98023.19;5066698;28;19916;-73
2023/12/23 06:26:37;;;;;;;;;;;;;;;3.30;100.00;98019.28;5049708;28;19920;-72
2023/12/23 06:29:02;;;;;;;;;;;;;;;3.86;100.00;97991.53;5048260;28;19917;-73
2023/12/23 06:31:28;;;;;;;;;;;;;;;5.78;100.00;97932.16;5046869;28;19927;-72
2023/12/23 06:33:53;;;;;;;;;;;;;;;9.35;100.00;97820.59;5067183;28;19923;-73
2023/12/23 06:36:18;;;;;;;;;;;;;;;5.11;100.00;98048.19;5067139;28;20121;-72
2023/12/23 06:38:44;;;;;;;;;;;;;;;7.68;100.00;97930.97;5067604;28;19927;-74
2023/12/23 06:41:10;;;;;;;;;;;;;;;9.60;100.00;97875.78;5066105;28;19926;-73
2023/12/23 06:43:35;;;;;;;;;;;;;;;9.81;100.00;97910.03;5049656;28;19922;-74
2023/12/23 06:46:01;;;;;;;;;;;;;;;10.52;100.00;97920.22;5049352;28;19916;-75
2023/12/23 06:48:26;;;;;;;;;;;;;;;10.48;100.00;97939.88;5067287;28;19916;-73
2023/12/23 06:50:51;;;;;;;;;;;;;;;10.96;100.00;97953.84;5067705;28;19982;-73
2023/12/23 06:53:16;;;;;;;;;;;;;;;9.06;100.00;98143.28;5066860;28;20437;-73
2023/12/23 06:55:42;;;;;;;;;;;;;;;11.32;100.00;98060.94;5066904;28;19966;-72
2023/12/23 06:58:07;;;;;;;;;;;;;;;11.09;100.00;98133.50;5049208;28;19924;-73
2023/12/23 07:00:32;;;;;;;;;;;;;;;10.94;100.00;98162.41;5066139;28;19924;-72
2023/12/23 07:02:57;;;;;;;;;;;;;;;11.00;100.00;98181.56;5049414;28;19927;-73
2023/12/23 07:05:23;;;;;;;;;;;;;;;9.31;100.00;98247.59;5067278;28;20360;-73
2023/12/23 07:07:48;;;;;;;;;;;;;;;7.90;100.00;98308.41;5048925;28;19948;-81
2023/12/23 07:10:14;;;;;;;;;;;;;;;7.49;100.00;98274.81;5050290;28;19970;-72
2023/12/23 07:12:40;;;;;;;;;;;;;;;6.71;100.00;98313.47;5048823;28;21453;-70
2023/12/23 07:15:06;;;;;;;;;;;;;;;5.72;100.00;98361.72;5048276;28;19916;-71
2023/12/23 07:17:32;;;;;;;;;;;;;;;5.45;100.00;98370.19;5066246;28;20398;-71
2023/12/23 07:19:57;;;;;;;;;;;;;;;6.16;100.00;98319.00;5066664;28;19969;-70
2023/12/23 07:22:22;;;;;;;;;;;;;;;5.85;100.00;98320.09;5049296;28;19971;-71
2023/12/23 07:24:47;;;;;;;;;;;;;;;5.50;100.00;98343.16;5070088;28;20349;-71
2023/12/23 07:27:13;;;;;;;;;;;;;;;5.71;100.00;98326.47;5052581;28;19939;-70
2023/12/23 07:29:39;;;;;;;;;;;;;;;5.67;100.00;98337.53;5052526;28;20357;-71
2023/12/23 07:32:04;;;;;;;;;;;;;;;5.78;100.00;98343.03;5070132;28;20390;-73
2023/12/23 07:34:29;;;;;;;;;;;;;;;5.41;100.00;98352.75;5051419;28;20753;-72
2023/12/23 07:36:55;;;;;;;;;;;;;;;5.67;100.00;98310.63;5069154;28;19966;-74
2023/12/23 07:39:25;;;;;;;;;;;;;;;5.24;100.00;98328.09;5051926;28;19920;-72
2023/12/23 07:41:50;;;;;;;;;;;;;;;5.55;100.00;98300.16;5070286;28;19920;-72
2023/12/23 07:44:15;;;;;;;;;;;;;;;5.63;100.00;98303.22;5069927;28;19920;-73
2023/12/23 07:46:41;;;;;;;;;;;;;;;5.80;100.00;98309.31;5051769;28;20029;-73
2023/12/23 07:49:07;;;;;;;;;;;;;;;5.45;100.00;98341.69;5070365;28;20497;-73
2023/12/23 07:51:33;;;;;;;;;;;;;;;5.76;100.00;98349.81;5049529;28;20525;-73
2023/12/23 07:53:58;;;;;;;;;;;;;;;5.95;100.00;98355.88;5052317;28;19928;-73
2023/12/23 07:56:25;;;;;;;;;;;;;;;5.87;100.00;98375.50;5069961;28;19927;-76
2023/12/23 07:58:50;;;;;;;;;;;;;;;5.78;100.00;98381.69;5070732;28;19921;-73
2023/12/23 08:01:16;;;;;;;;;;;;;;;6.21;100.00;98355.78;5069781;28;19923;-72
2023/12/23 08:03:41;;;;;;;;;;;;;;;6.37;100.00;98358.53;5051954;28;20290;-72
2023/12/23 08:06:06;;;;;;;;;;;;;;;6.26;100.00;98375.78;5052595;28;20347;-73
2023/12/23 08:08:32;;;;;;;;;;;;;;;6.16;100.00;98392.94;5069114;28;20356;-73
2023/12/23 08:10:58;;;;;;;;;;;;;;;6.02;100.00;98387.59;5051968;28;19916;-73
2023/12/23 08:13:24;;;;;;;;;;;;;;;5.99;100.00;98370.03;5069523;28;19943;-74
2023/12/23 08:15:49;;;;;;;;;;;;;;;6.18;100.00;98383.63;5051915;28;20017;-73
2023/12/23 08:18:17;;;;;;;;;;;;;;;6.29;100.00;98378.19;5068445;28;19917;-75
2023/12/23 08:20:42;;;;;;;;;;;;;;;6.59;100.00;98375.34;5069714;28;19963;-76
2023/12/23 08:23:07;;;;;;;;;;;;;;;6.43;100.00;98409.63;5069918;28;19955;-74
2023/12/23 08:25:33;;;;;;;;;;;;;;;6.49;100.00;98406.88;5051004;28;20259;-75
2023/12/23 08:27:58;;;;;;;;;;;;;;;6.64;100.00;98418.91;5069623;28;20417;-74
2023/12/23 08:30:23;;;;;;;;;;;;;;;6.85;100.00;98423.13;5069189;28;19916;-74
2023/12/23 08:32:48;;;;;;;;;;;;;;;6.89;100.00;98444.88;5066792;28;20299;-72
2023/12/23 08:35:15;;;;;;;;;;;;;;;7.15;100.00;98433.75;5051129;28;19916;-74
2023/12/23 08:37:40;;;;;;;;;;;;;;;7.03;100.00;98451.13;5069833;28;19991;-74
2023/12/23 08:40:06;;;;;;;;;;;;;;;6.83;100.00;98465.28;5068846;28;20003;-76
2023/12/23 08:42:31;;;;;;;;;;;;;;;6.75;100.00;98469.84;5069321;28;19924;-77
2023/12/23 08:44:57;;;;;;;;;;;;;;;6.72;100.00;98476.69;5069283;28;20344;-72
2023/12/23 08:47:22;;;;;;;;;;;;;;;6.78;100.00;98486.56;5069370;28;19963;-76
2023/12/23 08:49:47;;;;;;;;;;;;;;;6.81;100.00;98491.50;5050823;28;19936;-74
2023/12/23 08:52:12;;;;;;;;;;;;;;;6.74;100.00;98500.19;5068976;28;19920;-74
2023/12/23 08:54:39;;;;;;;;;;;;;;;6.95;100.00;98490.09;5051094;28;20386;-73
2023/12/23 08:57:04;;;;;;;;;;;;;;;6.81;100.00;98516.75;5069366;28;19916;-74
2023/12/23 08:59:30;;;;;;;;;;;;;;;6.88;100.00;98503.84;5052223;28;20035;-73
2023/12/23 09:01:55;;;;;;;;;;;;;;;7.07;100.00;98518.31;5068675;28;19916;-74
2023/12/23 09:04:20;;;;;;;;;;;;;;;7.06;100.00;98526.75;5051768;28;19920;-74
2023/12/23 09:06:46;;;;;;;;;;;;;;;6.99;100.00;98534.56;5069706;28;19919;-73
2023/12/23 09:09:11;;;;;;;;;;;;;;;6.99;100.00;98532.03;5051148;28;20298;-73
2023/12/23 09:11:44;;;;;;;;;;;;;;;7.49;100.00;98504.84;5051226;28;20004;-75
2023/12/23 09:14:12;;;;;;;;;;;;;;;7.51;100.00;98513.19;5068249;28;19980;-75
2023/12/23 09:16:37;;;;;;;;;;;;;;;7.54;100.00;98517.31;5050380;28;19916;-74
2023/12/23 09:19:03;;;;;;;;;;;;;;;7.58;100.00;98534.00;5050852;28;19920;-76
2023/12/23 09:21:28;;;;;;;;;;;;;;;8.31;100.00;98507.38;5050152;28;19916;-74
2023/12/23 09:23:53;;;;;;;;;;;;;;;8.52;100.00;98514.03;5051554;28;19917;-73
2023/12/23 09:26:19;;;;;;;;;;;;;;;8.80;100.00;98530.56;5050869;28;20402;-73
2023/12/23 09:28:44;;;;;;;;;;;;;;;8.93;100.00;98529.13;5050645;28;19966;-73
2023/12/23 09:31:09;;;;;;;;;;;;;;;8.97;100.00;98490.94;5068316;28;19952;-74
2023/12/23 09:33:34;;;;;;;;;;;;;;;8.92;100.00;98454.00;5050484;28;20064;-74
2023/12/23 09:36:00;;;;;;;;;;;;;;;8.54;100.00;98470.91;5068336;28;19935;-73
2023/12/23 09:38:25;;;;;;;;;;;;;;;8.53;100.00;98465.06;5068023;28;20375;-74
2023/12/23 09:40:50;;;;;;;;;;;;;;;8.43;100.00;98463.81;5050168;28;19916;-74
2023/12/23 09:43:16;;;;;;;;;;;;;;;8.42;100.00;98454.56;5050984;28;19921;-73
2023/12/23 09:45:41;;;;;;;;;;;;;;;8.41;100.00;98425.09;5067711;28;19924;-72
2023/12/23 09:48:07;;;;;;;;;;;;;;;8.47;100.00;98439.16;5068653;28;19956;-74
2023/12/23 09:50:32;;;;;;;;;;;;;;;8.39;100.00;98462.31;5050134;28;19923;-72
2023/12/23 09:52:59;;;;;;;;;;;;;;;8.52;100.00;98465.94;5050661;28;19912;-74
2023/12/23 09:55:25;;;;;;;;;;;;;;;8.39;100.00;98487.63;5049862;28;19924;-74
2023/12/23 09:57:50;;;;;;;;;;;;;;;8.44;100.00;98484.88;5067694;28;19927;-73
2023/12/23 10:00:16;;;;;;;;;;;;;;;8.49;100.00;98483.81;5049415;28;19941;-75
2023/12/23 10:02:41;;;;;;;;;;;;;;;8.47;100.00;98493.19;5067120;28;20367;-76
2023/12/23 10:05:07;;;;;;;;;;;;;;;8.43;100.00;98504.31;5068526;28;19916;-75
2023/12/23 10:07:33;;;;;;;;;;;;;;;8.67;100.00;98482.16;5048956;28;19917;-73
2023/12/23 10:09:58;;;;;;;;;;;;;;;8.69;100.00;98486.25;5068366;28;20409;-74
2023/12/23 10:12:24;;;;;;;;;;;;;;;9.08;100.00;98483.66;5068294;28;19973;-73
2023/12/23 10:14:49;;;;;;;;;;;;;;;9.07;100.00;98509.88;4352848;28;10000867;-75
2023/12/23 10:17:16;;;;;;;;;;;;;;;9.24;100.00;98506.56;5011591;28;19925;-74
2023/12/23 10:19:41;;;;;;;;;;;;;;;9.15;100.00;98524.75;5012288;28;20021;-74
2023/12/23 10:22:06;;;;;;;;;;;;;;;9.20;100.00;98545.63;5012315;28;20008;-74
2023/12/23 10:24:31;;;;;;;;;;;;;;;9.28;100.00;98544.41;5008758;28;19917;-77
2023/12/23 10:26:58;;;;;;;;;;;;;;;9.36;100.00;98555.00;5015841;28;19959;-77
2023/12/23 10:29:24;;;;;;;;;;;;;;;9.33;100.00;98587.31;5014202;28;19943;-74
2023/12/23 10:32:02;;;;;;;;;;;;;;;9.38;100.00;98578.59;5029880;28;19924;-73
2023/12/23 10:34:30;;;;;;;;;;;;;;;9.48;100.00;98574.75;5031272;28;19975;-73
2023/12/23 10:36:57;;;;;;;;;;;;;;;9.44;100.00;98592.69;5034373;28;20014;-76
2023/12/23 10:39:26;;;;;;;;;;;;;;;9.64;100.00;98605.28;5017124;28;19913;-75
2023/12/23 10:41:55;;;;;;;;;;;;;;;9.60;100.00;98634.22;5015735;28;19921;-75
2023/12/23 10:44:20;;;;;;;;;;;;;;;9.73;100.00;98683.50;5016313;28;19917;-74
2023/12/23 10:46:46;;;;;;;;;;;;;;;9.60;100.00;98698.47;5049883;28;19916;-75
2023/12/23 10:49:12;;;;;;;;;;;;;;;9.68;100.00;98682.91;5070061;28;20390;-75
2023/12/23 10:51:41;;;;;;;;;;;;;;;9.87;100.00;98705.72;5068381;28;19917;-77
2023/12/23 10:54:08;;;;;;;;;;;;;;;10.02;100.00;98708.38;5068826;28;19923;-75
2023/12/23 10:56:35;;;;;;;;;;;;;;;10.14;100.00;98720.53;5049680;28;19927;-74
2023/12/23 10:59:00;;;;;;;;;;;;;;;10.03;100.00;98765.88;5070032;28;20374;-74
2023/12/23 11:01:27;;;;;;;;;;;;;;;9.97;100.00;98783.09;5051773;28;19920;-75
2023/12/23 11:03:54;;;;;;;;;;;;;;;10.04;100.00;98780.19;5067926;28;20057;-74
2023/12/23 11:06:20;;;;;;;;;;;;;;;10.15;100.00;98797.53;5049307;28;19916;-75
2023/12/23 11:08:46;;;;;;;;;;;;;;;10.02;100.00;98824.34;5045978;28;20382;-74
2023/12/23 11:11:11;;;;;;;;;;;;;;;10.18;100.00;98830.41;5048957;28;19932;-78
2023/12/23 11:13:37;;;;;;;;;;;;;;;10.13;100.00;98856.00;5050666;28;19916;-76
2023/12/23 11:16:02;;;;;;;;;;;;;;;10.05;100.00;98897.81;5063649;28;19916;-75
2023/12/23 11:18:28;;;;;;;;;;;;;;;10.05;100.00;98910.50;5048780;28;19967;-75
2023/12/23 11:20:54;;;;;;;;;;;;;;;9.92;100.00;98920.41;5050193;28;20015;-76
2023/12/23 11:23:32;;;;;;;;;;;;;;;9.89;100.00;98935.75;5048794;28;20019;-75
2023/12/23 11:25:57;;;;;;;;;;;;;;;9.93;100.00;98959.28;5067017;28;19964;-80
2023/12/23 11:28:24;;;;;;;;;;;;;;;9.88;100.00;98934.09;5049811;28;19924;-76
2023/12/23 11:30:51;;;;;;;;;;;;;;;9.93;100.00;98955.03;5067723;28;19946;-77
2023/12/23 11:33:20;;;;;;;;;;;;;;;9.92;100.00;98961.00;5067035;28;19924;-75
2023/12/23 11:35:52;;;;;;;;;;;;;;;9.82;100.00;98974.97;5066960;28;19965;-76
2023/12/23 11:38:19;;;;;;;;;;;;;;;9.79;100.00;98979.31;5049938;28;20302;-75
2023/12/23 11:40:47;;;;;;;;;;;;;;;9.97;100.00;98926.09;5050543;28;19924;-75
2023/12/23 11:43:16;;;;;;;;;;;;;;;10.20;100.00;98946.25;5053138;28;19916;-76
2023/12/23 11:45:42;;;;;;;;;;;;;;;10.39;100.00;98949.66;5068663;28;19916;-76
2023/12/23 11:48:08;;;;;;;;;;;;;;;10.44;100.00;98972.31;5051345;28;19916;-74
2023/12/23 11:50:34;;;;;;;;;;;;;;;10.48;100.00;98978.91;5052166;28;19923;-76
2023/12/23 11:52:59;;;;;;;;;;;;;;;10.33;100.00;98956.72;5069354;28;19916;-76
2023/12/23 11:55:25;;;;;;;;;;;;;;;10.33;100.00;98988.03;5050555;28;19924;-76
2023/12/23 11:57:50;;;;;;;;;;;;;;;10.29;100.00;99014.47;5069198;28;19970;-74
2023/12/23 12:00:17;;;;;;;;;;;;;;;10.43;100.00;98998.63;5052457;28;19974;-74
2023/12/23 12:02:50;;;;;;;;;;;;;;;10.32;100.00;98994.00;5051500;28;20378;-76
2023/12/23 12:05:16;;;;;;;;;;;;;;;10.33;100.00;98980.41;5066942;28;19923;-77
2023/12/23 12:07:41;;;;;;;;;;;;;;;10.64;100.00;98991.75;5051248;28;19916;-76
2023/12/23 12:10:06;;;;;;;;;;;;;;;10.30;100.00;98984.81;5054392;28;19922;-75
2023/12/23 12:12:32;;;;;;;;;;;;;;;10.64;100.00;99002.75;5053502;28;19916;-74
2023/12/23 12:14:57;;;;;;;;;;;;;;;10.61;100.00;99007.16;5053215;28;19923;-76
2023/12/23 12:17:24;;;;;;;;;;;;;;;10.63;100.00;99020.63;5071939;28;19940;-76
2023/12/23 12:19:49;;;;;;;;;;;;;;;10.59;100.00;99042.81;5054598;28;19928;-76
2023/12/23 12:22:15;;;;;;;;;;;;;;;10.68;100.00;99054.28;5056261;28;19924;-77
2023/12/23 12:24:42;;;;;;;;;;;;;;;10.69;100.00;99063.56;5053887;28;19929;-77
2023/12/23 12:27:07;;;;;;;;;;;;;;;10.59;100.00;99087.72;5053725;28;19920;-81
2023/12/23 12:29:32;;;;;;;;;;;;;;;10.42;100.00;99111.28;5052840;28;19953;-78
2023/12/23 12:31:58;;;;;;;;;;;;;;;10.46;100.00;99082.31;5054110;28;19920;-75
2023/12/23 12:34:24;;;;;;;;;;;;;;;10.48;100.00;99096.63;5053020;28;20393;-75
2023/12/23 12:36:52;;;;;;;;;;;;;;;10.39;100.00;99116.50;5053039;28;19924;-76